Time;durP1;ratioP1;P1;durP2;ratioP2;P2;SDS_P1;SDS_P2;PMS_P1;PMS_P2;Temp;Humidity;BMP_temperature;BMP_pressure;BME280_temperature;BME280_humidity;BME280_pressure;Samples;Min_cycle;Max_cycle;Signal;HPM_P1;HPM_P2
2021/04/14 00:01:26;;;;;;;0.10;0.10;;;;;;;10.40;39.17;99596.03;5092595;28;20064;-60
2021/04/14 00:03:51;;;;;;;0.20;0.20;;;;;;;10.41;39.48;99597.69;5092684;28;20464;-59
2021/04/14 00:06:17;;;;;;;0.10;0.10;;;;;;;10.40;39.59;99599.63;5092721;28;20038;-60
2021/04/14 00:08:43;;;;;;;0.10;0.10;;;;;;;10.38;39.58;99585.28;5092945;28;20025;-59
2021/04/14 00:11:16;;;;;;;0.10;0.10;;;;;;;10.37;39.79;99599.22;5074230;28;20152;-60
2021/04/14 00:13:43;;;;;;;0.15;0.15;;;;;;;10.34;39.84;99586.75;5092408;28;20550;-59
2021/04/14 00:16:18;;;;;;;0.10;0.10;;;;;;;10.31;40.16;99595.38;5096497;28;20105;-60
2021/04/14 00:18:45;;;;;;;0.15;0.15;;;;;;;10.26;40.18;99587.81;5078062;28;20378;-60
2021/04/14 00:21:11;;;;;;;0.10;0.10;;;;;;;10.23;40.31;99593.72;5096145;28;20520;-59
2021/04/14 00:23:37;;;;;;;0.20;0.20;;;;;;;10.21;40.42;99595.81;5096555;28;20056;-59
2021/04/14 00:26:05;;;;;;;0.10;0.10;;;;;;;10.18;40.50;99597.06;5096154;28;20035;-60
2021/04/14 00:28:31;;;;;;;0.10;0.10;;;;;;;10.15;40.80;99592.03;5096070;28;20039;-61
2021/04/14 00:30:57;;;;;;;0.30;0.30;;;;;;;10.13;40.77;99593.31;5111761;28;20032;-59
2021/04/14 00:33:23;;;;;;;0.28;0.28;;;;;;;10.12;40.79;99594.34;5096339;28;20566;-58
2021/04/14 00:35:49;;;;;;;1.10;0.30;;;;;;;10.11;40.98;99600.91;5093833;28;20030;-62
2021/04/14 00:38:18;;;;;;;0.20;0.20;;;;;;;10.11;41.06;99600.91;5076262;28;20489;-58
2021/04/14 00:40:47;;;;;;;0.63;0.63;;;;;;;10.08;41.30;99602.16;5075761;28;20066;-60
2021/04/14 00:43:21;;;;;;;0.10;0.10;;;;;;;10.09;41.34;99606.59;5058137;28;20101;-59
2021/04/14 00:45:47;;;;;;;0.10;0.10;;;;;;;10.09;41.31;99601.09;5075527;28;20044;-59
2021/04/14 00:48:14;;;;;;;0.20;0.20;;;;;;;10.08;41.41;99610.38;5075754;28;20445;-59
2021/04/14 00:50:40;;;;;;;0.20;0.20;;;;;;;10.06;41.50;99598.78;5075792;28;20097;-58
2021/04/14 00:53:07;;;;;;;0.20;0.20;;;;;;;10.07;41.64;99608.72;5079779;28;20024;-59
2021/04/14 00:55:35;;;;;;;0.10;0.10;;;;;;;10.05;41.64;99610.81;5089929;28;20087;-59
2021/04/14 00:58:01;;;;;;;0.10;0.10;;;;;;;10.07;41.69;99603.22;5057003;28;20024;-59
2021/04/14 01:00:26;;;;;;;0.10;0.10;;;;;;;10.11;41.80;99601.72;5075364;28;20033;-60
2021/04/14 01:02:53;;;;;;;0.93;0.93;;;;;;;10.17;41.79;99600.03;5075542;28;20032;-59
2021/04/14 01:05:19;;;;;;;0.10;0.10;;;;;;;10.20;41.63;99596.03;5081155;28;20042;-58
2021/04/14 01:07:49;;;;;;;0.20;0.20;;;;;;;10.24;41.73;99597.31;5095253;28;20042;-60
2021/04/14 01:10:17;;;;;;;0.10;0.10;;;;;;;10.24;41.73;99589.91;5095315;28;20036;-59
2021/04/14 01:12:43;;;;;;;2.00;0.40;;;;;;;10.28;41.78;99604.06;5095416;28;20036;-59
2021/04/14 01:15:13;;;;;;;0.10;0.10;;;;;;;10.30;41.91;99586.28;5091988;28;20056;-52
2021/04/14 01:17:39;;;;;;;0.95;0.57;;;;;;;10.36;41.90;99592.03;5094966;28;20123;-58
2021/04/14 01:20:07;;;;;;;0.20;0.20;;;;;;;10.40;41.91;99585.88;5090746;28;20128;-57
2021/04/14 01:22:34;;;;;;;0.40;0.40;;;;;;;10.46;41.95;99585.03;5093722;28;20443;-52
2021/04/14 01:25:01;;;;;;;0.20;0.20;;;;;;;10.51;41.97;99578.88;5094398;28;20031;-52
2021/04/14 01:27:27;;;;;;;0.20;0.20;;;;;;;10.58;41.84;99578.88;5094727;28;20032;-52
2021/04/14 01:29:53;;;;;;;0.10;0.10;;;;;;;10.66;41.83;99581.41;5094767;28;20118;-50
2021/04/14 01:32:18;;;;;;;0.47;0.47;;;;;;;10.72;41.86;99574.16;5094594;28;20413;-52
2021/04/14 01:34:44;;;;;;;0.10;0.10;;;;;;;10.77;41.70;99580.69;5094778;28;20078;-55
2021/04/14 01:37:10;;;;;;;0.10;0.10;;;;;;;10.84;41.70;99586.19;5108112;28;20123;-52
2021/04/14 01:39:36;;;;;;;0.20;0.20;;;;;;;10.93;41.89;99584.03;5114934;28;20023;-54
2021/04/14 01:42:02;;;;;;;0.20;0.20;;;;;;;10.98;41.73;99585.06;5115119;28;20031;-57
2021/04/14 01:44:27;;;;;;;0.10;0.10;;;;;;;11.07;41.75;99580.16;5096807;28;20027;-46
2021/04/14 01:46:53;;;;;;;0.20;0.20;;;;;;;11.17;41.79;99583.28;5114771;28;20081;-54
2021/04/14 01:49:19;;;;;;;0.10;0.10;;;;;;;11.31;41.38;99595.03;5106844;28;20521;-57
2021/04/14 01:51:48;;;;;;;0.63;0.43;;;;;;;11.45;41.41;99583.94;5103077;28;20039;-57
2021/04/14 01:54:13;;;;;;;0.20;0.20;;;;;;;11.56;41.26;99589.56;5104770;28;20447;-57
2021/04/14 01:56:41;;;;;;;0.15;0.15;;;;;;;11.67;41.53;99587.19;5108837;28;20031;-55
2021/04/14 01:59:08;;;;;;;0.15;0.15;;;;;;;11.74;41.30;99596.22;5112725;28;20519;-58
2021/04/14 02:01:34;;;;;;;0.47;0.47;;;;;;;11.82;41.39;99600.59;5111701;28;20384;-58
2021/04/14 02:04:00;;;;;;;0.10;0.10;;;;;;;11.89;41.33;99599.47;5109342;28;20034;-58
2021/04/14 02:06:26;;;;;;;0.20;0.20;;;;;;;11.97;41.24;99603.91;5112902;28;20081;-57
2021/04/14 02:08:52;;;;;;;0.10;0.10;;;;;;;12.07;41.44;99597.88;5108885;28;20528;-58
2021/04/14 02:11:18;;;;;;;0.10;0.10;;;;;;;12.17;41.16;99594.63;5112556;28;20035;-59
2021/04/14 02:13:44;;;;;;;0.20;0.20;;;;;;;12.28;41.10;99588.38;5112816;28;20153;-53
2021/04/14 02:16:17;;;;;;;0.30;0.30;;;;;;;12.40;41.19;99594.81;5094613;28;20031;-59
2021/04/14 02:18:44;;;;;;;0.10;0.10;;;;;;;12.57;40.94;99591.47;5110302;28;20457;-58
2021/04/14 02:21:11;;;;;;;0.10;0.10;;;;;;;12.74;40.90;99587.03;5101150;28;20659;-59
2021/04/14 02:23:41;;;;;;;0.40;0.40;;;;;;;13.06;40.46;99588.75;5112360;28;20020;-58
2021/04/14 02:26:13;;;;;;;0.10;0.10;;;;;;;13.46;39.85;99586.31;5112336;28;20023;-59
2021/04/14 02:28:40;;;;;;;0.13;0.13;;;;;;;14.13;39.40;99595.44;5112751;28;20024;-59
2021/04/14 02:31:07;;;;;;;0.10;0.10;;;;;;;14.85;38.34;99595.19;5113918;28;20039;-60
2021/04/14 02:33:34;;;;;;;0.20;0.20;;;;;;;15.36;37.62;99595.38;5113899;28;20032;-59
2021/04/14 02:36:00;;;;;;;0.10;0.10;;;;;;;15.81;37.16;99596.53;5113886;28;20043;-60
2021/04/14 02:38:26;;;;;;;0.10;0.10;;;;;;;16.10;37.24;99601.97;5093256;28;20122;-61
2021/04/14 02:40:52;;;;;;;0.10;0.10;;;;;;;16.30;37.36;99604.25;5079923;28;20040;-59
2021/04/14 02:43:20;;;;;;;0.20;0.20;;;;;;;16.67;37.05;99597.31;5059620;28;20534;-59
2021/04/14 02:45:45;;;;;;;0.22;0.20;;;;;;;17.06;36.56;99614.75;5092960;28;20389;-59
2021/04/14 02:48:11;;;;;;;0.20;0.20;;;;;;;17.30;36.70;99601.47;5064269;28;20032;-58
2021/04/14 02:50:38;;;;;;;0.47;0.47;;;;;;;17.38;36.73;99602.09;5073347;28;20025;-59
2021/04/14 02:53:06;;;;;;;0.22;0.22;;;;;;;17.44;37.13;99599.09;5084155;28;20025;-59
2021/04/14 02:55:32;;;;;;;0.30;0.30;;;;;;;17.68;36.79;99612.69;5055366;28;20055;-62
2021/04/14 02:57:58;;;;;;;0.10;0.10;;;;;;;18.06;36.44;99605.28;5073506;28;20024;-59
2021/04/14 03:00:26;;;;;;;0.10;0.10;;;;;;;18.47;36.00;99604.78;5092784;28;20085;-59
2021/04/14 03:02:51;;;;;;;0.13;0.13;;;;;;;18.78;35.90;99605.78;5074083;28;20085;-59
2021/04/14 03:05:21;;;;;;;0.10;0.10;;;;;;;18.84;36.07;99601.91;5092601;28;20040;-59
2021/04/14 03:07:47;;;;;;;0.10;0.10;;;;;;;18.79;36.28;99603.84;5084859;28;20079;-59
2021/04/14 03:10:14;;;;;;;0.15;0.15;;;;;;;18.65;36.67;99617.38;5081491;28;20055;-59
2021/04/14 03:12:40;;;;;;;0.15;0.15;;;;;;;18.55;36.91;99616.22;5073104;28;20043;-60
2021/04/14 03:15:07;;;;;;;0.20;0.20;;;;;;;18.60;37.05;99612.63;5072646;28;20406;-60
2021/04/14 03:17:34;;;;;;;0.10;0.10;;;;;;;18.76;36.81;99610.78;5072867;28;20055;-60
2021/04/14 03:20:00;;;;;;;0.10;0.10;;;;;;;18.95;36.73;99613.13;5072689;28;20036;-59
2021/04/14 03:22:26;;;;;;;0.10;0.10;;;;;;;19.10;36.67;99612.38;5078763;28;20047;-60
2021/04/14 03:24:52;;;;;;;0.20;0.20;;;;;;;19.32;36.24;99615.81;5073950;28;20037;-64
2021/04/14 03:27:18;;;;;;;0.30;0.30;;;;;;;19.66;35.99;99622.88;5054439;28;20024;-59
2021/04/14 03:29:43;;;;;;;0.10;0.10;;;;;;;19.83;35.82;99611.50;5090912;28;20028;-59
2021/04/14 03:32:09;;;;;;;0.10;0.10;;;;;;;20.05;35.65;99612.09;5091620;28;20060;-59
2021/04/14 03:34:35;;;;;;;0.10;0.10;;;;;;;20.42;35.31;99612.88;5092311;28;20075;-59
2021/04/14 03:37:01;;;;;;;0.10;0.10;;;;;;;20.89;34.82;99619.25;5102022;28;20089;-61
2021/04/14 03:39:26;;;;;;;0.10;0.10;;;;;;;21.15;34.86;99614.41;5093138;28;20089;-60
2021/04/14 03:41:52;;;;;;;0.63;0.63;;;;;;;21.29;34.77;99617.41;5091954;28;20505;-64
2021/04/14 03:44:18;;;;;;;0.10;0.10;;;;;;;21.39;34.69;99614.56;5112862;28;20024;-64
2021/04/14 03:46:44;;;;;;;0.10;0.10;;;;;;;21.30;34.78;99617.16;5112463;28;20531;-61
2021/04/14 03:49:09;;;;;;;0.10;0.10;;;;;;;21.32;34.87;99614.06;5099049;28;20028;-59
2021/04/14 03:51:36;;;;;;;0.20;0.20;;;;;;;21.45;34.84;99613.44;5092524;28;20032;-59
2021/04/14 03:54:02;;;;;;;0.10;0.10;;;;;;;21.52;35.01;99618.72;5092304;28;20440;-60
2021/04/14 03:56:28;;;;;;;0.17;0.17;;;;;;;21.41;35.19;99617.09;5092757;28;20043;-59
2021/04/14 03:58:55;;;;;;;0.10;0.10;;;;;;;21.41;35.00;99606.75;5092798;28;20028;-58
2021/04/14 04:01:28;;;;;;;0.10;0.10;;;;;;;21.43;35.42;99609.25;5074363;28;20493;-60
2021/04/14 04:03:56;;;;;;;0.10;0.10;;;;;;;21.58;35.24;99611.97;5104288;28;20028;-59
2021/04/14 04:06:22;;;;;;;0.10;0.10;;;;;;;22.12;34.57;99603.81;5100273;28;20421;-58
2021/04/14 04:08:49;;;;;;;0.10;0.10;;;;;;;22.86;33.37;99590.47;5092646;28;20539;-59
2021/04/14 04:11:16;;;;;;;0.10;0.10;;;;;;;23.70;32.48;99593.91;5092322;28;20036;-58
2021/04/14 04:13:42;;;;;;;0.25;0.25;;;;;;;24.26;32.11;99597.81;5092313;28;20028;-59
2021/04/14 04:16:08;;;;;;;0.10;0.10;;;;;;;24.28;32.08;99598.34;5092673;28;20061;-60
2021/04/14 04:18:36;;;;;;;0.95;0.10;;;;;;;23.73;33.32;99591.34;5092221;28;20085;-60
2021/04/14 04:21:06;;;;;;;0.10;0.10;;;;;;;22.92;34.52;99594.91;5091998;28;20489;-59
2021/04/14 04:23:32;;;;;;;0.10;0.10;;;;;;;22.27;35.34;99594.44;5107620;28;20032;-59
2021/04/14 04:25:58;;;;;;;0.10;0.10;;;;;;;21.73;35.93;99585.94;5112727;28;20075;-60
2021/04/14 04:28:24;;;;;;;0.20;0.20;;;;;;;21.17;36.83;99599.06;5112549;28;20545;-59
2021/04/14 04:30:51;;;;;;;2.70;0.65;;;;;;;20.82;36.95;99597.22;5112628;28;20023;-58
2021/04/14 04:33:17;;;;;;;0.10;0.10;;;;;;;20.58;37.13;99594.19;5110993;28;20074;-59
2021/04/14 04:35:43;;;;;;;0.38;0.38;;;;;;;20.36;37.46;99586.97;5097551;28;20047;-59
2021/04/14 04:38:09;;;;;;;0.10;0.10;;;;;;;20.13;37.42;99599.53;5091456;28;20394;-60
2021/04/14 04:40:35;;;;;;;0.10;0.10;;;;;;;20.01;37.56;99587.81;5072036;28;20085;-60
2021/04/14 04:43:00;;;;;;;0.20;0.20;;;;;;;19.95;37.23;99592.56;5071749;28;20032;-58
2021/04/14 04:45:30;;;;;;;0.10;0.10;;;;;;;19.93;37.24;99584.50;5054317;28;20033;-59
2021/04/14 04:47:56;;;;;;;0.20;0.20;;;;;;;19.94;37.31;99588.09;5072204;28;20025;-59
2021/04/14 04:50:27;;;;;;;0.10;0.10;;;;;;;19.99;37.00;99582.50;5053739;28;20040;-60
2021/04/14 04:52:57;;;;;;;0.10;0.10;;;;;;;19.96;36.96;99585.84;5075311;28;20363;-58
2021/04/14 04:55:23;;;;;;;0.20;0.20;;;;;;;19.88;36.97;99575.28;5091663;28;20055;-58
2021/04/14 04:57:50;;;;;;;0.60;0.40;;;;;;;19.81;36.98;99580.28;5073635;28;20028;-60
2021/04/14 05:00:17;;;;;;;9.00;0.40;;;;;;;19.81;36.90;99574.72;5081501;28;20071;-59
2021/04/14 05:02:43;;;;;;;0.10;0.10;;;;;;;19.78;36.77;99578.88;5075293;28;20039;-58
2021/04/14 05:05:13;;;;;;;0.10;0.10;;;;;;;19.70;36.84;99582.19;5090564;28;20028;-59
2021/04/14 05:07:40;;;;;;;0.10;0.10;;;;;;;19.63;36.98;99573.28;5074956;28;20028;-58
2021/04/14 05:10:07;;;;;;;0.52;0.35;;;;;;;19.54;36.95;99571.03;5074926;28;20036;-59
2021/04/14 05:12:32;;;;;;;0.10;0.10;;;;;;;;;;5074977;28;20036;-59
2021/04/14 05:14:58;;;;;;;0.30;0.30;;;;;;;19.32;36.97;99576.81;5074777;28;20037;-58
2021/04/14 05:17:24;;;;;;;0.10;0.10;;;;;;;19.27;37.30;99576.78;5075068;28;20032;-59
2021/04/14 05:19:50;;;;;;;0.13;0.13;;;;;;;19.31;37.03;99579.88;5074899;28;20068;-59
2021/04/14 05:22:16;;;;;;;0.13;0.13;;;;;;;19.39;36.81;99577.41;5090284;28;20537;-58
2021/04/14 05:24:41;;;;;;;0.10;0.10;;;;;;;19.42;36.79;99574.06;5083373;28;20043;-60
2021/04/14 05:27:08;;;;;;;0.10;0.10;;;;;;;19.44;36.76;99571.81;5095651;28;20118;-60
2021/04/14 05:29:34;;;;;;;0.10;0.10;;;;;;;19.47;36.50;99562.09;5095182;28;20063;-59
2021/04/14 05:32:00;;;;;;;0.10;0.10;;;;;;;19.43;36.52;99563.75;5095143;28;20497;-58
2021/04/14 05:34:26;;;;;;;2.10;0.30;;;;;;;19.32;36.78;99559.28;5095199;28;20035;-60
2021/04/14 05:36:52;;;;;;;0.20;0.20;;;;;;;19.23;36.93;99554.25;5105656;28;20055;-59
2021/04/14 05:39:19;;;;;;;0.10;0.10;;;;;;;19.19;36.94;99553.13;5114850;28;20118;-60
2021/04/14 05:41:45;;;;;;;0.45;0.45;;;;;;;19.18;36.82;99559.78;5114932;28;20031;-59
2021/04/14 05:44:11;;;;;;;0.30;0.25;;;;;;;19.20;36.78;99543.66;5096689;28;20034;-59
2021/04/14 05:46:36;;;;;;;0.10;0.10;;;;;;;19.11;36.64;99550.88;5115390;28;20027;-59
2021/04/14 05:49:02;;;;;;;0.35;0.35;;;;;;;19.03;36.93;99554.19;5114848;28;20032;-59
2021/04/14 05:51:30;;;;;;;0.45;0.45;;;;;;;18.98;36.97;99556.97;5115409;28;20042;-58
2021/04/14 05:53:57;;;;;;;0.10;0.10;;;;;;;18.97;36.84;99558.06;5114621;28;20020;-59
2021/04/14 05:56:23;;;;;;;0.20;0.20;;;;;;;18.94;36.97;99550.25;5114844;28;20088;-60
2021/04/14 05:58:49;;;;;;;1.23;0.30;;;;;;;18.85;36.90;99547.13;5114904;28;20051;-59
2021/04/14 06:01:19;;;;;;;0.20;0.20;;;;;;;18.78;37.01;99554.88;5114506;28;20040;-59
2021/04/14 06:03:47;;;;;;;0.15;0.15;;;;;;;18.70;37.07;99553.47;5114769;28;20035;-58
2021/04/14 06:06:12;;;;;;;0.10;0.10;;;;;;;18.65;37.27;99553.41;5114653;28;20031;-59
2021/04/14 06:08:38;;;;;;;0.47;0.47;;;;;;;18.61;37.14;99550.34;5114900;28;20034;-59
2021/04/14 06:11:04;;;;;;;0.10;0.10;;;;;;;18.59;37.16;99554.50;5114290;28;20027;-58
2021/04/14 06:13:32;;;;;;;0.30;0.30;;;;;;;18.53;37.07;99548.91;5113704;28;20023;-59
2021/04/14 06:15:57;;;;;;;0.13;0.13;;;;;;;18.50;36.99;99556.97;5096295;28;20493;-59
2021/04/14 06:18:23;;;;;;;0.10;0.10;;;;;;;18.49;37.16;99556.13;5114227;28;20070;-60
2021/04/14 06:20:49;;;;;;;0.10;0.10;;;;;;;18.47;36.84;99547.19;5114216;28;20031;-62
2021/04/14 06:23:19;;;;;;;0.20;0.20;;;;;;;18.46;36.74;99542.78;5093917;28;20036;-60
2021/04/14 06:26:13;;;;;;;0.20;0.20;;;;;;;18.53;36.92;99550.84;5056253;28;20111;-59
2021/04/14 06:28:40;;;;;;;0.20;0.20;;;;;;;18.56;36.73;99541.97;5073373;28;20028;-59
2021/04/14 06:31:08;;;;;;;0.17;0.17;;;;;;;18.52;36.59;99530.56;5073900;28;20364;-59
2021/04/14 06:33:37;;;;;;;0.10;0.10;;;;;;;18.47;36.84;99530.50;5055379;28;20032;-60
2021/04/14 06:36:06;;;;;;;0.15;0.15;;;;;;;18.42;36.77;99521.31;5073936;28;20468;-60
2021/04/14 06:38:35;;;;;;;0.15;0.15;;;;;;;18.36;36.96;99531.59;5055493;28;20486;-60
2021/04/14 06:41:38;;;;;;;0.10;0.10;;;;;;;18.31;37.16;99525.97;5073467;28;20029;-61
2021/04/14 06:44:35;;;;;;;0.10;0.10;;;;;;;18.30;36.95;99525.16;5073150;28;20037;-60
2021/04/14 06:47:01;;;;;;;0.10;0.10;;;;;;;18.30;36.86;99510.41;5073632;28;20082;-59
2021/04/14 06:49:49;;;;;;;0.10;0.10;;;;;;;18.31;36.91;99525.97;5073041;28;20089;-60
2021/04/14 06:52:25;;;;;;;0.17;0.17;;;;;;;18.29;36.86;99514.31;5073677;28;20078;-62
2021/04/14 06:54:56;;;;;;;0.10;0.10;;;;;;;18.27;36.93;99519.28;5089515;28;20422;-59
2021/04/14 06:57:26;;;;;;;0.20;0.20;;;;;;;18.26;36.87;99507.34;5074129;28;20036;-58
2021/04/14 07:00:04;;;;;;;0.20;0.20;;;;;;;18.24;36.77;99498.44;5054818;28;20033;-59
2021/04/14 07:02:42;;;;;;;0.10;0.10;;;;;;;18.23;36.72;99505.09;5072896;28;20062;-59
2021/04/14 07:05:27;;;;;;;0.10;0.10;;;;;;;18.29;36.68;99505.97;5054949;28;20119;-59
2021/04/14 07:07:55;;;;;;;0.10;0.10;;;;;;;18.32;36.47;99503.47;5073674;28;20446;-59
2021/04/14 07:10:25;;;;;;;0.28;0.22;;;;;;;18.32;36.52;99494.31;5072757;28;20120;-60
2021/04/14 07:12:53;;;;;;;0.10;0.10;;;;;;;18.31;36.48;99487.06;5055056;28;20038;-59
2021/04/14 07:15:21;;;;;;;0.22;0.22;;;;;;;18.33;36.69;99490.41;5054852;28;20339;-59
2021/04/14 07:18:06;;;;;;;0.10;0.10;;;;;;;18.38;36.32;99484.88;5073085;28;20043;-61
2021/04/14 07:20:54;;;;;;;0.20;0.20;;;;;;;18.34;36.37;99480.97;5073326;28;20395;-60
2021/04/14 07:23:43;;;;;;;0.10;0.10;;;;;;;18.28;36.63;99482.03;5072212;28;20036;-59
2021/04/14 07:26:38;;;;;;;0.10;0.10;;;;;;;18.23;36.34;99473.66;5072750;28;20043;-60
2021/04/14 07:29:22;;;;;;;0.17;0.17;;;;;;;18.21;36.46;99472.00;5030502;28;20045;-59
2021/04/14 07:32:06;;;;;;;0.10;0.10;;;;;;;18.20;36.30;99459.22;5031152;28;20122;-59
2021/04/14 07:34:34;;;;;;;0.13;0.13;;;;;;;18.24;36.17;99476.19;5030507;28;20415;-59
2021/04/14 07:37:18;;;;;;;0.40;0.40;;;;;;;18.25;36.42;99465.91;5042241;28;20052;-58
2021/04/14 07:40:17;;;;;;;0.10;0.10;;;;;;;18.27;36.26;99470.09;5033605;28;20534;-60
2021/04/14 07:42:53;;;;;;;0.10;0.10;;;;;;;18.34;36.02;99472.63;4971798;28;20089;-60
2021/04/14 07:45:26;;;;;;;0.17;0.17;;;;;;;18.39;35.92;99461.53;4971771;28;20463;-59
2021/04/14 07:47:56;;;;;;;0.10;0.10;;;;;;;18.43;36.04;99453.47;4972237;28;20242;-60
2021/04/14 07:50:30;;;;;;;0.10;0.10;;;;;;;18.41;36.00;99448.19;4971646;28;20038;-59
2021/04/14 07:52:57;;;;;;;0.30;0.30;;;;;;;18.39;36.12;99459.59;4971906;28;20062;-60
2021/04/14 07:55:33;;;;;;;0.10;0.10;;;;;;;18.38;36.07;99448.72;4971329;28;20042;-62
2021/04/14 07:58:14;;;;;;;0.35;0.30;;;;;;;18.39;35.94;99453.19;4971629;28;20045;-59
2021/04/14 08:00:44;;;;;;;0.20;0.20;;;;;;;18.39;35.88;99445.69;4971525;28;20081;-60
2021/04/14 08:03:15;;;;;;;0.10;0.10;;;;;;;18.43;35.92;99456.25;4971357;28;20539;-60
2021/04/14 08:05:41;;;;;;;0.10;0.10;;;;;;;18.45;35.82;99448.50;4985112;28;20054;-59
2021/04/14 08:08:16;;;;;;;0.15;0.15;;;;;;;18.49;35.94;99439.34;5010584;28;20030;-60
2021/04/14 08:10:55;;;;;;;0.17;0.17;;;;;;;18.54;35.94;99436.56;5010262;28;20034;-60
2021/04/14 08:13:28;;;;;;;0.10;0.10;;;;;;;18.62;35.73;99437.16;5010894;28;20042;-58
2021/04/14 08:15:54;;;;;;;0.10;0.10;;;;;;;18.64;35.69;99433.00;5035282;28;20044;-58
2021/04/14 08:18:27;;;;;;;0.10;0.10;;;;;;;18.69;35.68;99426.59;5016415;28;20504;-59
2021/04/14 08:21:15;;;;;;;0.10;0.10;;;;;;;18.74;35.49;99408.00;5103312;28;20052;-60
2021/04/14 08:24:06;;;;;;;0.38;0.38;;;;;;;18.80;35.28;99414.41;5102623;28;20030;-59
2021/04/14 08:26:35;;;;;;;0.20;0.20;;;;;;;18.83;35.38;99397.16;5009638;28;20405;-59
2021/04/14 08:29:12;;;;;;;0.10;0.10;;;;;;;18.85;35.13;99389.34;5001869;28;20046;-60
2021/04/14 08:31:48;;;;;;;0.20;0.20;;;;;;;18.88;35.09;99391.63;5006345;28;20041;-58
2021/04/14 08:34:23;;;;;;;0.10;0.10;;;;;;;18.90;34.78;99399.69;4990809;28;20030;-59
2021/04/14 08:36:56;;;;;;;0.10;0.10;;;;;;;18.89;34.70;99396.09;5011227;28;20555;-59
2021/04/14 08:39:36;;;;;;;0.10;0.10;;;;;;;18.89;34.71;99404.44;5011971;28;20499;-59
2021/04/14 08:42:20;;;;;;;0.35;0.20;;;;;;;18.88;34.81;99391.63;5012230;28;20027;-59
2021/04/14 08:44:49;;;;;;;0.10;0.10;;;;;;;18.89;34.50;99387.72;5013502;28;20042;-59
2021/04/14 08:47:27;;;;;;;0.10;0.10;;;;;;;18.91;34.57;99402.19;5009581;28;20121;-61
2021/04/14 08:50:05;;;;;;;1.55;0.22;;;;;;;18.91;34.51;99390.25;5009292;28;20041;-61
2021/04/14 08:52:33;;;;;;;0.10;0.10;;;;;;;18.90;34.37;99371.88;4995563;28;20157;-59
2021/04/14 08:55:01;;;;;;;0.28;0.28;;;;;;;18.91;34.40;99381.88;5012059;28;20133;-59
2021/04/14 08:57:26;;;;;;;0.50;0.50;;;;;;;18.91;34.36;99377.16;5011815;28;20029;-59
2021/04/14 08:59:56;;;;;;;0.20;0.20;;;;;;;18.93;34.26;99364.91;5007532;28;20112;-59
2021/04/14 09:02:23;;;;;;;0.20;0.20;;;;;;;18.95;34.13;99374.66;5009732;28;20439;-59
2021/04/14 09:04:51;;;;;;;0.80;0.40;;;;;;;19.00;34.15;99382.19;5114087;28;20092;-58
2021/04/14 09:07:25;;;;;;;0.10;0.10;;;;;;;19.01;34.11;99367.16;5111505;28;20406;-59
2021/04/14 09:09:53;;;;;;;0.10;0.10;;;;;;;19.02;34.01;99371.59;5096871;28;20071;-60
2021/04/14 09:12:37;;;;;;;0.10;0.10;;;;;;;19.06;33.90;99367.97;5114178;28;20036;-61
2021/04/14 09:15:09;;;;;;;0.10;0.10;;;;;;;19.07;33.77;99361.31;5108187;27;20034;-61
2021/04/14 09:17:34;;;;;;;0.10;0.10;;;;;;;19.11;33.80;99367.16;5113868;28;20031;-59
2021/04/14 09:20:19;;;;;;;1.00;0.25;;;;;;;19.12;33.69;99362.44;5109531;27;20123;-58
2021/04/14 09:22:56;;;;;;;0.10;0.10;;;;;;;19.14;33.61;99358.25;5088243;28;20408;-59
2021/04/14 09:25:38;;;;;;;0.10;0.10;;;;;;;19.21;33.49;99356.03;5113417;28;20031;-60
2021/04/14 09:28:06;;;;;;;0.10;0.10;;;;;;;19.28;33.44;99363.28;5094754;28;20031;-60
2021/04/14 09:30:40;;;;;;;0.45;0.20;;;;;;;19.34;33.07;99362.16;5097416;28;20028;-59
2021/04/14 09:33:06;;;;;;;0.10;0.10;;;;;;;19.36;32.96;99368.25;5113678;28;20027;-60
2021/04/14 09:35:32;;;;;;;0.38;0.22;;;;;;;19.34;32.75;99365.75;5112867;28;20053;-59
2021/04/14 09:38:27;;;;;;;0.50;0.38;;;;;;;19.28;32.62;99361.31;5088070;28;20050;-60
2021/04/14 09:41:06;;;;;;;0.10;0.10;;;;;;;19.24;32.78;99346.28;5081179;28;20074;-59
2021/04/14 09:43:35;;;;;;;0.50;0.25;;;;;;;19.24;32.61;99338.78;5043810;28;20020;-59
2021/04/14 09:46:07;;;;;;;0.10;0.10;;;;;;;19.24;32.21;99344.34;5072600;28;20035;-59
2021/04/14 09:48:44;;;;;;;0.10;0.10;;;;;;;19.25;32.45;99337.63;5087945;28;20040;-60
2021/04/14 09:51:18;;;;;;;0.10;0.10;;;;;;;19.28;32.19;99333.47;5081327;28;20517;-60
2021/04/14 09:53:46;;;;;;;0.10;0.10;;;;;;;19.24;32.20;99347.13;5081819;28;20127;-61
2021/04/14 09:56:24;;;;;;;0.10;0.10;;;;;;;19.22;32.10;99340.97;5081880;28;20040;-59
2021/04/14 09:59:14;;;;;;;0.10;0.10;;;;;;;19.19;32.13;99341.53;5081267;28;20512;-59
2021/04/14 10:01:42;;;;;;;0.13;0.13;;;;;;;19.21;32.00;99341.25;5078948;28;20040;-59
2021/04/14 10:04:19;;;;;;;0.10;0.10;;;;;;;19.22;31.79;99327.06;5081849;28;20039;-60
2021/04/14 10:07:11;;;;;;;0.10;0.10;;;;;;;19.22;31.87;99335.41;5065554;28;20032;-63
2021/04/14 10:09:37;;;;;;;0.55;0.55;;;;;;;19.22;31.85;99326.25;5081607;28;20036;-60
2021/04/14 10:12:15;;;;;;;0.10;0.10;;;;;;;19.20;31.53;99339.63;5077992;28;20173;-60
2021/04/14 10:14:52;;;;;;;0.10;0.10;;;;;;;19.21;31.48;99330.97;5064548;28;20036;-59
2021/04/14 10:17:20;;;;;;;0.85;0.52;;;;;;;19.22;31.33;99329.03;5080608;28;20319;-61
2021/04/14 10:19:52;;;;;;;0.10;0.10;;;;;;;19.22;31.25;99338.19;5071268;28;20035;-60
2021/04/14 10:22:32;;;;;;;0.13;0.13;;;;;;;19.23;31.23;99333.47;5078131;28;20051;-61
2021/04/14 10:25:18;;;;;;;0.10;0.10;;;;;;;19.25;30.89;99336.81;5081944;28;21330;-62
2021/04/14 10:27:45;;;;;;;0.10;0.10;;;;;;;19.26;31.11;99344.06;5078104;28;20040;-60
2021/04/14 10:30:18;;;;;;;0.10;0.10;;;;;;;19.27;31.02;99323.44;5084464;28;20057;-59
2021/04/14 10:32:44;;;;;;;0.25;0.25;;;;;;;19.28;31.01;99333.47;5074583;28;20043;-59
2021/04/14 10:35:15;;;;;;;0.90;0.30;;;;;;;19.28;30.93;99322.31;5084475;28;20044;-59
2021/04/14 10:37:50;;;;;;;0.10;0.10;;;;;;;19.31;30.78;99329.28;5078719;28;20064;-61
2021/04/14 10:40:21;;;;;;;0.10;0.10;;;;;;;19.33;30.67;99322.34;5082928;28;20123;-60
2021/04/14 10:42:50;;;;;;;0.20;0.20;;;;;;;19.33;30.68;99325.13;5078341;28;20379;-58
2021/04/14 10:45:18;;;;;;;0.10;0.10;;;;;;;19.29;30.69;99325.94;5061128;28;20048;-60
2021/04/14 10:47:46;;;;;;;0.17;0.17;;;;;;;19.26;30.68;99322.63;5063331;28;20028;-60
2021/04/14 10:50:18;;;;;;;0.10;0.10;;;;;;;19.26;30.61;99319.00;5079169;28;20035;-60
2021/04/14 10:52:48;;;;;;;2.22;0.32;;;;;;;19.25;30.54;99322.91;5082227;28;20532;-61
2021/04/14 10:55:21;;;;;;;0.10;0.10;;;;;;;19.25;30.47;99323.72;5076995;28;20040;-60
2021/04/14 10:57:54;;;;;;;0.10;0.10;;;;;;;19.24;30.38;99319.28;5076139;28;20071;-60
2021/04/14 11:00:31;;;;;;;0.10;0.10;;;;;;;19.26;30.44;99310.66;5084289;28;20520;-61
2021/04/14 11:03:20;;;;;;;0.10;0.10;;;;;;;19.26;30.26;99308.69;5084672;28;20040;-60
2021/04/14 11:05:51;;;;;;;0.10;0.10;;;;;;;19.27;30.08;99312.31;5056448;28;20040;-60
2021/04/14 11:08:17;;;;;;;0.10;0.10;;;;;;;19.29;30.17;99310.09;5092426;28;20035;-60
2021/04/14 11:10:44;;;;;;;0.10;0.10;;;;;;;19.29;30.14;99298.09;5079786;28;20130;-59
2021/04/14 11:13:15;;;;;;;0.10;0.10;;;;;;;19.30;30.10;99306.19;5083862;28;20060;-61
2021/04/14 11:15:45;;;;;;;0.10;0.10;;;;;;;19.28;30.06;99293.66;5072205;28;20119;-61
2021/04/14 11:18:13;;;;;;;0.10;0.10;;;;;;;19.25;29.98;99298.66;5074510;28;20039;-59
2021/04/14 11:20:52;;;;;;;0.10;0.10;;;;;;;19.24;29.98;99293.38;5083443;28;20046;-61
2021/04/14 11:23:26;;;;;;;0.10;0.10;;;;;;;19.28;30.05;99286.13;5079535;28;20119;-60
2021/04/14 11:26:09;;;;;;;0.15;0.15;;;;;;;19.31;29.95;99293.09;5080432;28;20044;-60
2021/04/14 11:28:44;;;;;;;0.17;0.17;;;;;;;19.33;29.75;99293.63;5079542;28;20086;-59
2021/04/14 11:31:13;;;;;;;0.10;0.10;;;;;;;19.35;29.89;99297.00;5075474;28;20036;-59
2021/04/14 11:33:44;;;;;;;0.10;0.10;;;;;;;19.36;29.84;99284.72;5081564;28;20036;-62
2021/04/14 11:36:25;;;;;;;0.10;0.10;;;;;;;19.39;29.82;99286.94;5076694;28;20123;-58
2021/04/14 11:39:02;;;;;;;0.10;0.10;;;;;;;19.36;29.75;99291.16;5077408;28;20582;-60
2021/04/14 11:41:35;;;;;;;0.10;0.10;;;;;;;19.32;29.55;99281.69;5076707;28;20144;-59
2021/04/14 11:44:13;;;;;;;0.00;0.00;;;;;;;19.29;29.67;99289.75;5072157;28;20028;-61
2021/04/14 11:46:40;;;;;;;0.10;0.10;;;;;;;19.29;29.79;99286.97;5076006;28;20050;-59
2021/04/14 11:49:12;;;;;;;0.17;0.17;;;;;;;19.35;29.65;99271.94;5088430;28;20370;-62